Moscow, Arkansas
Current Conditions -  °F | °C
As of 7:53 AM on Friday 28 Nov 2014 (Local Time) from KPBF Reporting Station
Clear Clear  
Wind Chill: 33°   Ceiling: Unl
Heat Index: 33°   Visibility: 8mi
Dew Point: 29°   Wind: 3mph
Humidity: 85%   Direction: 190°S
Pressure: 30.38"   Gusts: NA
Location:  34.15°N, 91.8°W
Report Text: KPBF 281353Z AUTO 19003KT 8SM CLR 01/M02 A3038 RMK AO2 SLP289 T00061017
Loading
Personal Weather Stations






























Interactive Weather Map New forecast layout! Learn more

10-Day Weather Forecast

Advertisements
Track Severe Weather on mobile